Terminal Aerodrome Forecast
Issued by NWS Burlington, VT

Home | Current Version | Previous Version | Text Only | Print | Product List | Glossary On
Versions: 1 2 3 4 5 6 7 8 9 10 11 12 13 14 15 16 17 18
988
FTUS41 KBTV 090537
TAFBTV
TAF
KBTV 090537Z 0906/1006 VRB03KT 2SM -SN BR OVC020
      TEMPO 0906/0910 1 1/2SM -SN BR OVC018
     FM091000 VRB03KT 2SM -SN BR OVC020
     FM091400 17007KT 3SM -SN BR OVC020
     FM100000 VRB03KT 3SM -SN BR OVC020=

USA.gov is the U.S. government's official web portal to all federal, state and local government web resources and services.